sensor_id;sensor_type;location;lat;lon;timestamp;P1;durP1;ratioP1;P2;durP2;ratioP2
13720;SDS011;6932;51.438;5.470;2023-07-20T00:01:46;8.00;;;3.53;;
13720;SDS011;6932;51.438;5.470;2023-07-20T00:04:13;5.17;;;3.00;;
13720;SDS011;6932;51.438;5.470;2023-07-20T00:06:39;5.00;;;3.10;;
13720;SDS011;6932;51.438;5.470;2023-07-20T00:09:06;5.67;;;3.40;;
13720;SDS011;6932;51.438;5.470;2023-07-20T00:11:35;5.77;;;3.27;;
13720;SDS011;6932;51.438;5.470;2023-07-20T00:14:05;5.07;;;2.97;;
13720;SDS011;6932;51.438;5.470;2023-07-20T00:16:31;6.47;;;3.20;;
13720;SDS011;6932;51.438;5.470;2023-07-20T00:18:57;4.63;;;3.10;;
13720;SDS011;6932;51.438;5.470;2023-07-20T00:21:23;6.17;;;3.40;;
13720;SDS011;6932;51.438;5.470;2023-07-20T00:23:50;5.90;;;3.43;;
13720;SDS011;6932;51.438;5.470;2023-07-20T00:26:16;5.87;;;3.37;;
13720;SDS011;6932;51.438;5.470;2023-07-20T00:28:42;7.80;;;3.37;;
13720;SDS011;6932;51.438;5.470;2023-07-20T00:31:08;7.20;;;3.10;;
13720;SDS011;6932;51.438;5.470;2023-07-20T00:33:34;5.23;;;3.17;;
13720;SDS011;6932;51.438;5.470;2023-07-20T00:36:00;5.90;;;3.03;;
13720;SDS011;6932;51.438;5.470;2023-07-20T00:38:26;6.30;;;3.33;;
13720;SDS011;6932;51.438;5.470;2023-07-20T00:40:52;5.57;;;3.50;;
13720;SDS011;6932;51.438;5.470;2023-07-20T00:43:17;4.60;;;3.07;;
13720;SDS011;6932;51.438;5.470;2023-07-20T00:45:44;6.80;;;3.33;;
13720;SDS011;6932;51.438;5.470;2023-07-20T00:48:10;5.90;;;3.13;;
13720;SDS011;6932;51.438;5.470;2023-07-20T00:50:37;9.20;;;3.93;;
13720;SDS011;6932;51.438;5.470;2023-07-20T00:53:05;7.93;;;3.90;;
13720;SDS011;6932;51.438;5.470;2023-07-20T00:55:31;6.17;;;3.50;;
13720;SDS011;6932;51.438;5.470;2023-07-20T00:57:57;6.63;;;3.43;;
13720;SDS011;6932;51.438;5.470;2023-07-20T01:00:24;6.30;;;3.40;;
13720;SDS011;6932;51.438;5.470;2023-07-20T01:02:50;7.30;;;3.70;;
13720;SDS011;6932;51.438;5.470;2023-07-20T01:05:17;6.50;;;3.90;;
13720;SDS011;6932;51.438;5.470;2023-07-20T01:07:47;5.70;;;3.70;;
13720;SDS011;6932;51.438;5.470;2023-07-20T01:11:16;8.73;;;4.23;;
13720;SDS011;6932;51.438;5.470;2023-07-20T01:14:03;6.03;;;3.50;;
13720;SDS011;6932;51.438;5.470;2023-07-20T01:16:30;9.30;;;4.10;;
13720;SDS011;6932;51.438;5.470;2023-07-20T01:18:56;7.03;;;4.00;;
13720;SDS011;6932;51.438;5.470;2023-07-20T01:21:24;7.63;;;3.50;;
13720;SDS011;6932;51.438;5.470;2023-07-20T01:32:08;6.03;;;3.50;;
13720;SDS011;6932;51.438;5.470;2023-07-20T01:34:35;5.90;;;3.80;;
13720;SDS011;6932;51.438;5.470;2023-07-20T01:37:02;6.57;;;3.80;;
13720;SDS011;6932;51.438;5.470;2023-07-20T01:39:31;6.10;;;3.73;;
13720;SDS011;6932;51.438;5.470;2023-07-20T01:41:58;7.27;;;3.60;;
13720;SDS011;6932;51.438;5.470;2023-07-20T01:44:25;7.57;;;3.90;;
13720;SDS011;6932;51.438;5.470;2023-07-20T01:46:50;8.37;;;3.77;;
13720;SDS011;6932;51.438;5.470;2023-07-20T01:49:16;8.73;;;3.90;;
13720;SDS011;6932;51.438;5.470;2023-07-20T01:51:42;6.03;;;3.80;;
13720;SDS011;6932;51.438;5.470;2023-07-20T01:54:08;6.90;;;4.20;;
13720;SDS011;6932;51.438;5.470;2023-07-20T01:56:33;7.17;;;4.00;;
13720;SDS011;6932;51.438;5.470;2023-07-20T01:58:59;7.63;;;4.00;;
13720;SDS011;6932;51.438;5.470;2023-07-20T02:01:25;7.43;;;4.00;;
13720;SDS011;6932;51.438;5.470;2023-07-20T02:03:53;6.40;;;4.00;;
13720;SDS011;6932;51.438;5.470;2023-07-20T02:06:19;7.03;;;4.10;;
13720;SDS011;6932;51.438;5.470;2023-07-20T02:08:45;7.33;;;4.10;;
13720;SDS011;6932;51.438;5.470;2023-07-20T02:11:11;7.53;;;3.83;;
13720;SDS011;6932;51.438;5.470;2023-07-20T02:13:37;7.93;;;4.00;;
13720;SDS011;6932;51.438;5.470;2023-07-20T02:16:02;8.67;;;4.00;;
13720;SDS011;6932;51.438;5.470;2023-07-20T02:18:29;7.70;;;4.10;;
13720;SDS011;6932;51.438;5.470;2023-07-20T02:20:55;7.90;;;3.87;;
13720;SDS011;6932;51.438;5.470;2023-07-20T02:23:20;7.30;;;4.00;;
13720;SDS011;6932;51.438;5.470;2023-07-20T02:25:46;7.83;;;4.10;;
13720;SDS011;6932;51.438;5.470;2023-07-20T02:28:15;8.67;;;4.13;;
13720;SDS011;6932;51.438;5.470;2023-07-20T02:30:41;7.23;;;4.10;;
13720;SDS011;6932;51.438;5.470;2023-07-20T02:33:07;7.80;;;4.80;;
13720;SDS011;6932;51.438;5.470;2023-07-20T02:35:33;6.93;;;4.30;;
13720;SDS011;6932;51.438;5.470;2023-07-20T02:37:59;8.90;;;4.40;;
13720;SDS011;6932;51.438;5.470;2023-07-20T02:40:25;7.70;;;4.70;;
13720;SDS011;6932;51.438;5.470;2023-07-20T02:42:51;8.67;;;4.77;;
13720;SDS011;6932;51.438;5.470;2023-07-20T02:45:16;8.63;;;5.13;;
13720;SDS011;6932;51.438;5.470;2023-07-20T02:47:42;9.03;;;5.17;;
13720;SDS011;6932;51.438;5.470;2023-07-20T02:50:08;10.03;;;5.67;;
13720;SDS011;6932;51.438;5.470;2023-07-20T02:52:34;8.67;;;4.90;;
13720;SDS011;6932;51.438;5.470;2023-07-20T02:55:00;8.80;;;5.47;;
13720;SDS011;6932;51.438;5.470;2023-07-20T02:57:26;9.53;;;5.70;;
13720;SDS011;6932;51.438;5.470;2023-07-20T02:59:52;10.33;;;5.83;;
13720;SDS011;6932;51.438;5.470;2023-07-20T03:02:18;10.13;;;5.50;;
13720;SDS011;6932;51.438;5.470;2023-07-20T03:04:44;9.57;;;5.43;;
13720;SDS011;6932;51.438;5.470;2023-07-20T03:07:10;8.83;;;5.33;;
13720;SDS011;6932;51.438;5.470;2023-07-20T03:09:36;10.40;;;5.73;;
13720;SDS011;6932;51.438;5.470;2023-07-20T03:12:01;9.13;;;5.37;;
13720;SDS011;6932;51.438;5.470;2023-07-20T03:14:29;10.10;;;5.97;;
13720;SDS011;6932;51.438;5.470;2023-07-20T03:16:55;8.37;;;5.30;;
13720;SDS011;6932;51.438;5.470;2023-07-20T03:19:21;10.77;;;5.57;;
13720;SDS011;6932;51.438;5.470;2023-07-20T03:21:47;9.37;;;5.80;;
13720;SDS011;6932;51.438;5.470;2023-07-20T03:24:13;8.53;;;5.33;;
13720;SDS011;6932;51.438;5.470;2023-07-20T03:26:39;11.07;;;5.50;;
13720;SDS011;6932;51.438;5.470;2023-07-20T03:29:04;9.13;;;5.00;;
13720;SDS011;6932;51.438;5.470;2023-07-20T03:31:31;7.73;;;4.97;;
13720;SDS011;6932;51.438;5.470;2023-07-20T03:33:57;9.93;;;5.40;;
13720;SDS011;6932;51.438;5.470;2023-07-20T03:36:23;8.33;;;5.00;;
13720;SDS011;6932;51.438;5.470;2023-07-20T03:38:49;8.53;;;4.93;;
13720;SDS011;6932;51.438;5.470;2023-07-20T03:41:15;7.43;;;5.00;;
13720;SDS011;6932;51.438;5.470;2023-07-20T03:43:44;7.87;;;5.00;;
13720;SDS011;6932;51.438;5.470;2023-07-20T03:46:10;8.17;;;4.80;;
13720;SDS011;6932;51.438;5.470;2023-07-20T03:48:36;7.13;;;4.77;;
13720;SDS011;6932;51.438;5.470;2023-07-20T03:51:02;8.27;;;5.03;;
13720;SDS011;6932;51.438;5.470;2023-07-20T03:53:28;8.27;;;5.17;;
13720;SDS011;6932;51.438;5.470;2023-07-20T03:55:54;7.57;;;5.00;;
13720;SDS011;6932;51.438;5.470;2023-07-20T03:58:20;7.07;;;4.73;;
13720;SDS011;6932;51.438;5.470;2023-07-20T04:00:50;8.40;;;5.53;;
13720;SDS011;6932;51.438;5.470;2023-07-20T04:03:17;7.00;;;4.77;;
13720;SDS011;6932;51.438;5.470;2023-07-20T04:05:49;8.30;;;5.33;;
13720;SDS011;6932;51.438;5.470;2023-07-20T04:08:15;6.93;;;4.90;;
13720;SDS011;6932;51.438;5.470;2023-07-20T04:10:44;7.70;;;4.60;;
13720;SDS011;6932;51.438;5.470;2023-07-20T04:13:10;7.30;;;4.70;;
13720;SDS011;6932;51.438;5.470;2023-07-20T04:15:37;6.63;;;4.57;;
13720;SDS011;6932;51.438;5.470;2023-07-20T04:18:03;6.37;;;4.63;;
13720;SDS011;6932;51.438;5.470;2023-07-20T04:20:29;7.10;;;4.47;;
13720;SDS011;6932;51.438;5.470;2023-07-20T04:22:55;6.20;;;4.50;;
13720;SDS011;6932;51.438;5.470;2023-07-20T04:25:21;7.50;;;4.40;;
13720;SDS011;6932;51.438;5.470;2023-07-20T04:27:46;8.33;;;4.40;;
13720;SDS011;6932;51.438;5.470;2023-07-20T04:30:12;7.20;;;4.40;;
13720;SDS011;6932;51.438;5.470;2023-07-20T04:32:39;7.33;;;4.60;;
13720;SDS011;6932;51.438;5.470;2023-07-20T04:35:09;7.57;;;4.07;;
13720;SDS011;6932;51.438;5.470;2023-07-20T04:37:34;6.37;;;4.13;;
13720;SDS011;6932;51.438;5.470;2023-07-20T04:40:01;5.97;;;4.20;;
13720;SDS011;6932;51.438;5.470;2023-07-20T04:42:28;5.83;;;4.20;;
13720;SDS011;6932;51.438;5.470;2023-07-20T04:44:54;5.67;;;4.10;;
13720;SDS011;6932;51.438;5.470;2023-07-20T04:47:19;5.07;;;3.30;;
13720;SDS011;6932;51.438;5.470;2023-07-20T04:49:45;3.80;;;3.10;;
13720;SDS011;6932;51.438;5.470;2023-07-20T04:52:11;4.90;;;3.23;;
13720;SDS011;6932;51.438;5.470;2023-07-20T04:54:37;5.50;;;3.20;;
13720;SDS011;6932;51.438;5.470;2023-07-20T04:57:03;3.50;;;2.80;;
13720;SDS011;6932;51.438;5.470;2023-07-20T04:59:35;4.03;;;2.90;;
13720;SDS011;6932;51.438;5.470;2023-07-20T05:02:01;2.83;;;2.30;;
13720;SDS011;6932;51.438;5.470;2023-07-20T05:04:27;3.27;;;2.57;;
13720;SDS011;6932;51.438;5.470;2023-07-20T05:06:54;2.87;;;2.30;;
13720;SDS011;6932;51.438;5.470;2023-07-20T05:09:20;4.00;;;2.73;;
13720;SDS011;6932;51.438;5.470;2023-07-20T05:11:46;3.30;;;2.60;;
13720;SDS011;6932;51.438;5.470;2023-07-20T05:14:13;3.40;;;2.50;;
13720;SDS011;6932;51.438;5.470;2023-07-20T05:16:39;3.47;;;2.53;;
13720;SDS011;6932;51.438;5.470;2023-07-20T05:19:05;4.20;;;2.50;;
13720;SDS011;6932;51.438;5.470;2023-07-20T05:21:31;3.70;;;2.60;;
13720;SDS011;6932;51.438;5.470;2023-07-20T05:23:57;3.03;;;2.30;;
13720;SDS011;6932;51.438;5.470;2023-07-20T05:26:22;3.07;;;2.10;;
13720;SDS011;6932;51.438;5.470;2023-07-20T05:28:48;4.47;;;2.50;;
13720;SDS011;6932;51.438;5.470;2023-07-20T05:31:14;3.20;;;2.33;;
13720;SDS011;6932;51.438;5.470;2023-07-20T05:33:40;3.70;;;2.60;;
13720;SDS011;6932;51.438;5.470;2023-07-20T05:36:05;3.37;;;2.57;;
13720;SDS011;6932;51.438;5.470;2023-07-20T05:38:32;3.00;;;2.30;;
13720;SDS011;6932;51.438;5.470;2023-07-20T05:41:01;3.70;;;2.47;;
13720;SDS011;6932;51.438;5.470;2023-07-20T05:43:27;3.27;;;2.17;;
13720;SDS011;6932;51.438;5.470;2023-07-20T05:45:52;3.43;;;2.30;;
13720;SDS011;6932;51.438;5.470;2023-07-20T05:48:18;3.57;;;2.20;;
13720;SDS011;6932;51.438;5.470;2023-07-20T05:50:44;2.93;;;2.20;;
13720;SDS011;6932;51.438;5.470;2023-07-20T05:53:10;4.60;;;2.23;;
13720;SDS011;6932;51.438;5.470;2023-07-20T05:55:36;2.73;;;2.20;;
13720;SDS011;6932;51.438;5.470;2023-07-20T05:58:03;2.90;;;2.10;;
13720;SDS011;6932;51.438;5.470;2023-07-20T06:00:29;3.17;;;2.00;;
13720;SDS011;6932;51.438;5.470;2023-07-20T06:02:55;3.80;;;2.30;;
13720;SDS011;6932;51.438;5.470;2023-07-20T06:05:21;3.63;;;2.50;;
13720;SDS011;6932;51.438;5.470;2023-07-20T06:07:48;3.47;;;2.43;;
13720;SDS011;6932;51.438;5.470;2023-07-20T06:10:15;4.23;;;2.90;;
13720;SDS011;6932;51.438;5.470;2023-07-20T06:12:41;3.27;;;2.40;;
13720;SDS011;6932;51.438;5.470;2023-07-20T06:15:23;3.20;;;2.33;;
13720;SDS011;6932;51.438;5.470;2023-07-20T06:20:19;3.20;;;2.80;;
13720;SDS011;6932;51.438;5.470;2023-07-20T06:22:45;3.40;;;2.43;;
13720;SDS011;6932;51.438;5.470;2023-07-20T06:25:11;2.97;;;2.30;;
13720;SDS011;6932;51.438;5.470;2023-07-20T06:27:36;2.77;;;2.37;;
13720;SDS011;6932;51.438;5.470;2023-07-20T06:30:02;3.43;;;2.47;;
13720;SDS011;6932;51.438;5.470;2023-07-20T06:32:28;3.23;;;2.50;;
13720;SDS011;6932;51.438;5.470;2023-07-20T06:34:54;7.00;;;2.57;;
13720;SDS011;6932;51.438;5.470;2023-07-20T06:37:20;6.87;;;2.93;;
13720;SDS011;6932;51.438;5.470;2023-07-20T06:39:46;3.80;;;2.70;;
13720;SDS011;6932;51.438;5.470;2023-07-20T06:42:12;3.07;;;2.57;;
13720;SDS011;6932;51.438;5.470;2023-07-20T06:44:38;3.37;;;2.70;;
13720;SDS011;6932;51.438;5.470;2023-07-20T06:47:04;6.27;;;3.00;;
13720;SDS011;6932;51.438;5.470;2023-07-20T06:49:38;3.33;;;2.80;;
13720;SDS011;6932;51.438;5.470;2023-07-20T06:52:06;4.57;;;2.60;;
13720;SDS011;6932;51.438;5.470;2023-07-20T06:54:35;3.73;;;2.40;;
13720;SDS011;6932;51.438;5.470;2023-07-20T06:57:01;3.70;;;2.37;;
13720;SDS011;6932;51.438;5.470;2023-07-20T06:59:30;2.30;;;2.10;;
13720;SDS011;6932;51.438;5.470;2023-07-20T07:01:56;3.40;;;2.40;;
13720;SDS011;6932;51.438;5.470;2023-07-20T07:04:22;2.80;;;2.50;;
13720;SDS011;6932;51.438;5.470;2023-07-20T07:06:47;3.60;;;2.53;;
13720;SDS011;6932;51.438;5.470;2023-07-20T07:09:13;3.33;;;2.40;;
13720;SDS011;6932;51.438;5.470;2023-07-20T07:11:39;2.60;;;2.33;;
13720;SDS011;6932;51.438;5.470;2023-07-20T07:14:05;2.17;;;1.97;;
13720;SDS011;6932;51.438;5.470;2023-07-20T07:16:32;3.17;;;1.83;;
13720;SDS011;6932;51.438;5.470;2023-07-20T07:19:00;2.53;;;1.90;;
13720;SDS011;6932;51.438;5.470;2023-07-20T07:21:28;5.13;;;2.23;;
13720;SDS011;6932;51.438;5.470;2023-07-20T07:23:54;2.03;;;1.67;;
13720;SDS011;6932;51.438;5.470;2023-07-20T07:26:22;2.90;;;1.60;;
13720;SDS011;6932;51.438;5.470;2023-07-20T07:28:49;2.03;;;1.47;;
13720;SDS011;6932;51.438;5.470;2023-07-20T07:31:15;1.80;;;1.60;;
13720;SDS011;6932;51.438;5.470;2023-07-20T07:33:41;2.13;;;1.67;;
13720;SDS011;6932;51.438;5.470;2023-07-20T07:36:07;1.87;;;1.60;;
13720;SDS011;6932;51.438;5.470;2023-07-20T07:38:32;1.77;;;1.50;;
13720;SDS011;6932;51.438;5.470;2023-07-20T07:40:59;2.93;;;1.77;;
13720;SDS011;6932;51.438;5.470;2023-07-20T07:43:25;1.70;;;1.47;;
13720;SDS011;6932;51.438;5.470;2023-07-20T07:45:53;3.07;;;1.40;;
13720;SDS011;6932;51.438;5.470;2023-07-20T07:48:20;2.50;;;1.60;;
13720;SDS011;6932;51.438;5.470;2023-07-20T07:50:47;2.13;;;1.50;;
13720;SDS011;6932;51.438;5.470;2023-07-20T07:53:13;1.33;;;1.20;;
13720;SDS011;6932;51.438;5.470;2023-07-20T07:55:39;0.80;;;0.80;;
13720;SDS011;6932;51.438;5.470;2023-07-20T07:58:05;2.43;;;1.30;;
13720;SDS011;6932;51.438;5.470;2023-07-20T08:00:31;4.93;;;1.40;;
13720;SDS011;6932;51.438;5.470;2023-07-20T08:02:57;2.67;;;1.20;;
13720;SDS011;6932;51.438;5.470;2023-07-20T08:05:23;2.20;;;1.40;;
13720;SDS011;6932;51.438;5.470;2023-07-20T08:07:49;1.40;;;1.30;;
13720;SDS011;6932;51.438;5.470;2023-07-20T08:10:15;1.17;;;1.07;;
13720;SDS011;6932;51.438;5.470;2023-07-20T08:12:41;0.90;;;0.90;;
13720;SDS011;6932;51.438;5.470;2023-07-20T08:15:10;2.07;;;1.13;;
13720;SDS011;6932;51.438;5.470;2023-07-20T08:17:37;1.23;;;1.03;;
13720;SDS011;6932;51.438;5.470;2023-07-20T08:20:03;1.47;;;1.20;;
13720;SDS011;6932;51.438;5.470;2023-07-20T08:22:31;1.50;;;1.10;;
13720;SDS011;6932;51.438;5.470;2023-07-20T08:24:57;1.87;;;0.83;;
13720;SDS011;6932;51.438;5.470;2023-07-20T08:27:23;0.80;;;0.80;;
13720;SDS011;6932;51.438;5.470;2023-07-20T08:29:50;1.37;;;0.83;;
13720;SDS011;6932;51.438;5.470;2023-07-20T08:32:16;1.90;;;0.90;;
13720;SDS011;6932;51.438;5.470;2023-07-20T08:34:41;1.00;;;0.80;;
13720;SDS011;6932;51.438;5.470;2023-07-20T08:37:07;0.80;;;0.80;;
13720;SDS011;6932;51.438;5.470;2023-07-20T08:39:37;1.73;;;1.20;;
13720;SDS011;6932;51.438;5.470;2023-07-20T08:42:06;1.05;;;0.82;;
13720;SDS011;6932;51.438;5.470;2023-07-20T08:44:38;3.20;;;1.10;;
13720;SDS011;6932;51.438;5.470;2023-07-20T08:47:13;2.95;;;0.82;;
13720;SDS011;6932;51.438;5.470;2023-07-20T08:50:18;0.98;;;0.70;;
13720;SDS011;6932;51.438;5.470;2023-07-20T08:53:02;2.72;;;1.30;;
13720;SDS011;6932;51.438;5.470;2023-07-20T08:55:29;0.90;;;0.90;;
13720;SDS011;6932;51.438;5.470;2023-07-20T08:58:14;2.38;;;0.88;;
13720;SDS011;6932;51.438;5.470;2023-07-20T10:03:26;1.30;;;1.00;;
13720;SDS011;6932;51.438;5.470;2023-07-20T10:06:24;1.30;;;0.95;;
13720;SDS011;6932;51.438;5.470;2023-07-20T10:09:31;0.70;;;0.70;;
13720;SDS011;6932;51.438;5.470;2023-07-20T10:12:27;1.48;;;0.80;;
13720;SDS011;6932;51.438;5.470;2023-07-20T10:15:59;1.65;;;1.00;;
13720;SDS011;6932;51.438;5.470;2023-07-20T10:22:08;3.42;;;0.90;;
13720;SDS011;6932;51.438;5.470;2023-07-20T10:28:05;6.13;;;0.90;;
13720;SDS011;6932;51.438;5.470;2023-07-20T10:30:55;2.58;;;1.02;;
13720;SDS011;6932;51.438;5.470;2023-07-20T10:33:29;3.13;;;0.70;;
13720;SDS011;6932;51.438;5.470;2023-07-20T10:36:28;1.42;;;0.85;;
13720;SDS011;6932;51.438;5.470;2023-07-20T10:48:14;0.98;;;0.73;;
13720;SDS011;6932;51.438;5.470;2023-07-20T11:03:28;1.30;;;0.80;;
13720;SDS011;6932;51.438;5.470;2023-07-20T11:08:50;0.93;;;0.90;;
13720;SDS011;6932;51.438;5.470;2023-07-20T11:11:35;1.50;;;1.00;;
13720;SDS011;6932;51.438;5.470;2023-07-20T11:14:06;2.80;;;0.90;;
13720;SDS011;6932;51.438;5.470;2023-07-20T11:16:44;1.60;;;1.00;;
13720;SDS011;6932;51.438;5.470;2023-07-20T11:19:15;1.40;;;1.02;;
13720;SDS011;6932;51.438;5.470;2023-07-20T11:21:46;2.53;;;1.10;;
13720;SDS011;6932;51.438;5.470;2023-07-20T11:24:18;2.33;;;1.00;;
13720;SDS011;6932;51.438;5.470;2023-07-20T11:26:49;1.50;;;1.10;;
13720;SDS011;6932;51.438;5.470;2023-07-20T11:29:19;1.20;;;1.05;;
13720;SDS011;6932;51.438;5.470;2023-07-20T11:31:48;1.08;;;0.80;;
13720;SDS011;6932;51.438;5.470;2023-07-20T11:34:15;1.05;;;0.93;;
13720;SDS011;6932;51.438;5.470;2023-07-20T11:36:49;1.95;;;0.95;;
13720;SDS011;6932;51.438;5.470;2023-07-20T11:40:04;1.60;;;1.02;;
13720;SDS011;6932;51.438;5.470;2023-07-20T11:42:55;1.45;;;1.00;;
13720;SDS011;6932;51.438;5.470;2023-07-20T11:45:25;1.10;;;1.00;;
13720;SDS011;6932;51.438;5.470;2023-07-20T11:47:55;0.90;;;0.90;;
13720;SDS011;6932;51.438;5.470;2023-07-20T11:50:40;1.00;;;0.82;;
13720;SDS011;6932;51.438;5.470;2023-07-20T11:53:09;2.47;;;0.80;;
13720;SDS011;6932;51.438;5.470;2023-07-20T11:55:41;2.80;;;0.90;;
13720;SDS011;6932;51.438;5.470;2023-07-20T11:58:08;1.73;;;1.10;;
13720;SDS011;6932;51.438;5.470;2023-07-20T12:00:40;1.17;;;0.90;;
13720;SDS011;6932;51.438;5.470;2023-07-20T12:03:13;2.47;;;0.80;;
13720;SDS011;6932;51.438;5.470;2023-07-20T12:06:06;2.53;;;1.08;;
13720;SDS011;6932;51.438;5.470;2023-07-20T12:08:38;2.25;;;1.02;;
13720;SDS011;6932;51.438;5.470;2023-07-20T12:11:10;1.00;;;0.90;;
13720;SDS011;6932;51.438;5.470;2023-07-20T12:13:59;4.03;;;1.00;;
13720;SDS011;6932;51.438;5.470;2023-07-20T12:16:28;1.02;;;0.90;;
13720;SDS011;6932;51.438;5.470;2023-07-20T12:19:05;2.05;;;0.98;;
13720;SDS011;6932;51.438;5.470;2023-07-20T12:21:40;0.93;;;0.82;;
13720;SDS011;6932;51.438;5.470;2023-07-20T12:24:25;1.23;;;0.93;;
13720;SDS011;6932;51.438;5.470;2023-07-20T12:26:55;1.85;;;1.10;;
13720;SDS011;6932;51.438;5.470;2023-07-20T12:29:23;2.33;;;0.90;;
13720;SDS011;6932;51.438;5.470;2023-07-20T12:31:51;0.73;;;0.73;;
13720;SDS011;6932;51.438;5.470;2023-07-20T12:37:17;2.40;;;1.00;;
13720;SDS011;6932;51.438;5.470;2023-07-20T12:39:46;2.17;;;1.10;;
13720;SDS011;6932;51.438;5.470;2023-07-20T12:42:16;4.20;;;1.20;;
13720;SDS011;6932;51.438;5.470;2023-07-20T12:44:42;2.15;;;1.00;;
13720;SDS011;6932;51.438;5.470;2023-07-20T12:47:08;2.00;;;1.00;;
13720;SDS011;6932;51.438;5.470;2023-07-20T12:49:37;1.40;;;1.10;;
13720;SDS011;6932;51.438;5.470;2023-07-20T12:52:11;2.75;;;1.15;;
13720;SDS011;6932;51.438;5.470;2023-07-20T12:54:38;1.15;;;1.05;;
13720;SDS011;6932;51.438;5.470;2023-07-20T12:57:13;1.33;;;1.10;;
13720;SDS011;6932;51.438;5.470;2023-07-20T13:30:24;1.92;;;1.30;;
13720;SDS011;6932;51.438;5.470;2023-07-20T13:33:12;1.75;;;1.30;;
13720;SDS011;6932;51.438;5.470;2023-07-20T13:40:01;3.05;;;1.60;;
13720;SDS011;6932;51.438;5.470;2023-07-20T13:43:45;2.03;;;1.45;;
13720;SDS011;6932;51.438;5.470;2023-07-20T13:46:47;1.52;;;1.42;;
13720;SDS011;6932;51.438;5.470;2023-07-20T13:50:16;1.50;;;1.40;;
13720;SDS011;6932;51.438;5.470;2023-07-20T14:00:48;1.70;;;1.60;;
13720;SDS011;6932;51.438;5.470;2023-07-20T14:22:23;1.60;;;1.27;;
13720;SDS011;6932;51.438;5.470;2023-07-20T14:37:10;3.95;;;1.60;;
13720;SDS011;6932;51.438;5.470;2023-07-20T14:40:10;1.60;;;1.50;;
13720;SDS011;6932;51.438;5.470;2023-07-20T14:50:31;1.48;;;1.38;;
13720;SDS011;6932;51.438;5.470;2023-07-20T15:15:05;1.60;;;1.50;;
13720;SDS011;6932;51.438;5.470;2023-07-20T15:18:32;1.50;;;1.40;;
13720;SDS011;6932;51.438;5.470;2023-07-20T15:21:41;1.90;;;1.50;;
13720;SDS011;6932;51.438;5.470;2023-07-20T15:25:06;1.90;;;1.65;;
13720;SDS011;6932;51.438;5.470;2023-07-20T15:29:03;1.42;;;1.30;;
13720;SDS011;6932;51.438;5.470;2023-07-20T15:38:37;1.40;;;1.30;;
13720;SDS011;6932;51.438;5.470;2023-07-20T15:41:03;1.80;;;1.38;;
13720;SDS011;6932;51.438;5.470;2023-07-20T15:43:29;1.35;;;1.25;;
13720;SDS011;6932;51.438;5.470;2023-07-20T15:46:13;2.30;;;1.30;;
13720;SDS011;6932;51.438;5.470;2023-07-20T15:48:47;2.80;;;1.40;;
13720;SDS011;6932;51.438;5.470;2023-07-20T15:51:16;1.38;;;1.27;;
13720;SDS011;6932;51.438;5.470;2023-07-20T15:53:42;1.30;;;1.20;;
13720;SDS011;6932;51.438;5.470;2023-07-20T15:56:12;2.67;;;1.40;;
13720;SDS011;6932;51.438;5.470;2023-07-20T15:58:43;2.60;;;1.40;;
13720;SDS011;6932;51.438;5.470;2023-07-20T16:01:26;1.40;;;1.30;;
13720;SDS011;6932;51.438;5.470;2023-07-20T16:03:58;1.50;;;1.40;;
13720;SDS011;6932;51.438;5.470;2023-07-20T16:06:27;1.77;;;1.10;;
13720;SDS011;6932;51.438;5.470;2023-07-20T16:08:56;1.50;;;1.30;;
13720;SDS011;6932;51.438;5.470;2023-07-20T16:11:31;1.70;;;1.30;;
13720;SDS011;6932;51.438;5.470;2023-07-20T16:14:06;2.35;;;1.50;;
13720;SDS011;6932;51.438;5.470;2023-07-20T16:16:35;1.40;;;1.30;;
13720;SDS011;6932;51.438;5.470;2023-07-20T16:19:04;1.50;;;1.40;;
13720;SDS011;6932;51.438;5.470;2023-07-20T16:21:35;5.97;;;1.80;;
13720;SDS011;6932;51.438;5.470;2023-07-20T16:24:05;2.40;;;1.50;;
13720;SDS011;6932;51.438;5.470;2023-07-20T16:26:32;2.38;;;1.40;;
13720;SDS011;6932;51.438;5.470;2023-07-20T16:29:18;2.17;;;1.55;;
13720;SDS011;6932;51.438;5.470;2023-07-20T16:31:52;1.58;;;1.48;;
13720;SDS011;6932;51.438;5.470;2023-07-20T16:34:21;2.80;;;1.55;;
13720;SDS011;6932;51.438;5.470;2023-07-20T16:36:47;1.55;;;1.40;;
13720;SDS011;6932;51.438;5.470;2023-07-20T16:39:14;2.78;;;1.70;;
13720;SDS011;6932;51.438;5.470;2023-07-20T16:41:51;1.90;;;1.48;;
13720;SDS011;6932;51.438;5.470;2023-07-20T16:44:20;2.33;;;1.40;;
13720;SDS011;6932;51.438;5.470;2023-07-20T16:46:46;2.28;;;1.42;;
13720;SDS011;6932;51.438;5.470;2023-07-20T16:49:21;3.05;;;1.80;;
13720;SDS011;6932;51.438;5.470;2023-07-20T16:51:49;2.50;;;1.60;;
13720;SDS011;6932;51.438;5.470;2023-07-20T16:54:15;3.45;;;1.50;;
13720;SDS011;6932;51.438;5.470;2023-07-20T16:56:44;1.60;;;1.50;;
13720;SDS011;6932;51.438;5.470;2023-07-20T16:59:10;2.28;;;1.67;;
13720;SDS011;6932;51.438;5.470;2023-07-20T17:01:35;2.63;;;1.50;;
13720;SDS011;6932;51.438;5.470;2023-07-20T17:04:01;2.05;;;1.60;;
13720;SDS011;6932;51.438;5.470;2023-07-20T17:11:02;1.70;;;1.60;;
13720;SDS011;6932;51.438;5.470;2023-07-20T17:14:01;1.77;;;1.63;;
13720;SDS011;6932;51.438;5.470;2023-07-20T17:16:37;2.77;;;1.60;;
13720;SDS011;6932;51.438;5.470;2023-07-20T17:19:05;2.23;;;1.50;;
13720;SDS011;6932;51.438;5.470;2023-07-20T17:21:44;2.85;;;1.60;;
13720;SDS011;6932;51.438;5.470;2023-07-20T17:24:46;2.50;;;1.65;;
13720;SDS011;6932;51.438;5.470;2023-07-20T17:27:33;1.87;;;1.50;;
13720;SDS011;6932;51.438;5.470;2023-07-20T17:30:24;4.57;;;1.88;;
13720;SDS011;6932;51.438;5.470;2023-07-20T17:32:50;2.20;;;2.00;;
13720;SDS011;6932;51.438;5.470;2023-07-20T17:35:22;2.43;;;2.00;;
13720;SDS011;6932;51.438;5.470;2023-07-20T17:37:57;2.23;;;2.00;;
13720;SDS011;6932;51.438;5.470;2023-07-20T17:40:46;4.10;;;2.10;;
13720;SDS011;6932;51.438;5.470;2023-07-20T17:44:09;2.20;;;1.90;;
13720;SDS011;6932;51.438;5.470;2023-07-20T17:47:51;2.20;;;2.00;;
13720;SDS011;6932;51.438;5.470;2023-07-20T17:51:30;2.50;;;2.30;;
13720;SDS011;6932;51.438;5.470;2023-07-20T17:54:27;3.00;;;2.27;;
13720;SDS011;6932;51.438;5.470;2023-07-20T18:00:58;2.40;;;1.90;;
13720;SDS011;6932;51.438;5.470;2023-07-20T18:04:10;2.07;;;1.80;;
13720;SDS011;6932;51.438;5.470;2023-07-20T18:10:40;2.07;;;1.83;;
13720;SDS011;6932;51.438;5.470;2023-07-20T18:19:45;2.20;;;1.70;;
13720;SDS011;6932;51.438;5.470;2023-07-20T18:22:21;2.50;;;1.60;;
13720;SDS011;6932;51.438;5.470;2023-07-20T18:25:11;3.97;;;1.63;;
13720;SDS011;6932;51.438;5.470;2023-07-20T18:28:20;2.63;;;1.63;;
13720;SDS011;6932;51.438;5.470;2023-07-20T18:31:26;2.63;;;1.70;;
13720;SDS011;6932;51.438;5.470;2023-07-20T18:34:07;3.20;;;1.80;;
13720;SDS011;6932;51.438;5.470;2023-07-20T18:37:03;1.83;;;1.63;;
13720;SDS011;6932;51.438;5.470;2023-07-20T18:43:15;2.00;;;1.77;;
13720;SDS011;6932;51.438;5.470;2023-07-20T18:49:58;2.53;;;1.80;;
13720;SDS011;6932;51.438;5.470;2023-07-20T18:53:09;2.70;;;1.80;;
13720;SDS011;6932;51.438;5.470;2023-07-20T18:56:07;2.90;;;1.90;;
13720;SDS011;6932;51.438;5.470;2023-07-20T18:58:44;2.93;;;2.13;;
13720;SDS011;6932;51.438;5.470;2023-07-20T19:02:10;3.60;;;1.90;;
13720;SDS011;6932;51.438;5.470;2023-07-20T19:05:12;2.50;;;1.87;;
13720;SDS011;6932;51.438;5.470;2023-07-20T19:08:08;2.30;;;1.80;;
13720;SDS011;6932;51.438;5.470;2023-07-20T19:11:31;5.03;;;2.43;;
13720;SDS011;6932;51.438;5.470;2023-07-20T19:18:17;2.93;;;1.80;;
13720;SDS011;6932;51.438;5.470;2023-07-20T19:21:27;2.60;;;2.20;;
13720;SDS011;6932;51.438;5.470;2023-07-20T19:25:08;2.30;;;1.80;;
13720;SDS011;6932;51.438;5.470;2023-07-20T19:28:11;3.43;;;2.10;;
13720;SDS011;6932;51.438;5.470;2023-07-20T19:34:31;2.53;;;1.90;;
13720;SDS011;6932;51.438;5.470;2023-07-20T19:36:57;2.07;;;1.87;;
13720;SDS011;6932;51.438;5.470;2023-07-20T19:39:26;2.50;;;2.17;;
13720;SDS011;6932;51.438;5.470;2023-07-20T19:41:57;3.03;;;2.30;;
13720;SDS011;6932;51.438;5.470;2023-07-20T19:44:29;5.27;;;2.70;;
13720;SDS011;6932;51.438;5.470;2023-07-20T19:46:55;6.53;;;2.60;;
13720;SDS011;6932;51.438;5.470;2023-07-20T19:49:22;2.60;;;2.40;;
13720;SDS011;6932;51.438;5.470;2023-07-20T19:51:50;5.30;;;2.20;;